createdAt,value
2023-07-10T00:00:53.778Z,99336.00
2023-07-10T00:01:53.781Z,99338.00
2023-07-10T00:02:53.825Z,99337.00
2023-07-10T00:03:53.861Z,99335.00
2023-07-10T00:04:53.788Z,99336.00
2023-07-10T00:05:53.821Z,99329.00
2023-07-10T00:06:53.858Z,99331.00
2023-07-10T00:07:53.821Z,99333.00
2023-07-10T00:08:53.830Z,99324.00
2023-07-10T00:09:53.849Z,99326.00
2023-07-10T00:10:53.881Z,99323.00
2023-07-10T00:11:53.918Z,99325.00
2023-07-10T00:12:53.888Z,99325.00
2023-07-10T00:13:53.959Z,99324.00
2023-07-10T00:14:53.920Z,99321.00
2023-07-10T00:15:53.926Z,99321.00
2023-07-10T00:16:54.016Z,99319.00
2023-07-10T00:17:54.009Z,99319.00
2023-07-10T00:18:53.997Z,99322.00
2023-07-10T00:19:54.019Z,99320.00
2023-07-10T00:20:54.014Z,99324.00
2023-07-10T00:21:54.029Z,99326.00
2023-07-10T00:22:54.066Z,99323.00
2023-07-10T00:23:54.055Z,99318.00
2023-07-10T00:24:54.082Z,99323.00
2023-07-10T00:25:54.078Z,99323.00
2023-07-10T00:26:54.086Z,99321.00
2023-07-10T00:27:54.116Z,99320.00
2023-07-10T00:28:54.135Z,99323.00
2023-07-10T00:29:54.176Z,99325.00
2023-07-10T00:30:54.156Z,99325.00
2023-07-10T00:31:54.124Z,99323.00
2023-07-10T00:32:54.200Z,99319.00
2023-07-10T00:33:54.134Z,99324.00
2023-07-10T00:34:54.145Z,99322.00
2023-07-10T00:35:54.150Z,99323.00
2023-07-10T00:36:54.186Z,99327.00
2023-07-10T00:37:54.199Z,99326.00
2023-07-10T00:38:54.223Z,99326.00
2023-07-10T00:39:54.204Z,99325.00
2023-07-10T00:40:54.209Z,99327.00
2023-07-10T00:41:54.245Z,99327.00
2023-07-10T00:42:54.255Z,99318.00
2023-07-10T00:43:54.284Z,99323.00
2023-07-10T00:44:54.268Z,99318.00
2023-07-10T00:45:54.312Z,99317.00
2023-07-10T00:46:54.458Z,99317.00
2023-07-10T00:47:54.406Z,99314.00
2023-07-10T00:48:54.390Z,99315.00
2023-07-10T00:49:54.409Z,99315.00
2023-07-10T00:50:54.390Z,99316.00
2023-07-10T00:51:54.418Z,99313.00
2023-07-10T00:52:54.444Z,99320.00
2023-07-10T00:53:54.470Z,99323.00
2023-07-10T00:54:54.495Z,99315.00
2023-07-10T00:55:54.526Z,99316.00
2023-07-10T00:56:54.510Z,99313.00
2023-07-10T00:57:54.535Z,99318.00
2023-07-10T00:58:54.562Z,99321.00
2023-07-10T00:59:54.598Z,99318.00
2023-07-10T01:00:54.624Z,99330.00
2023-07-10T01:01:54.613Z,99335.00
2023-07-10T01:02:54.692Z,99342.00
2023-07-10T01:03:54.611Z,99332.00
2023-07-10T01:04:54.579Z,99332.00
2023-07-10T01:05:54.616Z,99326.00
2023-07-10T01:06:54.642Z,99321.00
2023-07-10T01:07:54.606Z,99325.00
2023-07-10T01:08:54.638Z,99323.00
2023-07-10T01:09:54.678Z,99325.00
2023-07-10T01:10:54.695Z,99324.00
2023-07-10T01:11:54.722Z,99318.00
2023-07-10T01:12:54.738Z,99325.00
2023-07-10T01:13:54.816Z,99323.00
2023-07-10T01:14:54.756Z,99323.00
2023-07-10T01:15:54.772Z,99317.00
2023-07-10T01:16:54.825Z,99310.00
2023-07-10T01:17:54.881Z,99307.00
2023-07-10T01:18:54.825Z,99306.00
2023-07-10T01:19:54.835Z,99299.00
2023-07-10T01:20:54.861Z,99296.00
2023-07-10T01:21:54.881Z,99296.00
2023-07-10T01:22:54.869Z,99300.00
2023-07-10T01:23:54.882Z,99304.00
2023-07-10T01:24:54.913Z,99311.00
2023-07-10T01:25:54.939Z,99323.00
2023-07-10T01:26:54.959Z,99325.00
2023-07-10T01:27:54.939Z,99328.00
2023-07-10T01:28:54.956Z,99330.00
2023-07-10T01:29:54.971Z,99333.00
2023-07-10T01:30:55.007Z,99342.00
2023-07-10T01:31:55.005Z,99346.00
2023-07-10T01:32:55.026Z,99348.00
2023-07-10T01:33:55.035Z,99350.00
2023-07-10T01:34:55.046Z,99361.00
2023-07-10T01:35:55.093Z,99367.00
2023-07-10T01:36:55.068Z,99365.00
2023-07-10T01:37:55.101Z,99369.00
2023-07-10T01:38:55.107Z,99366.00
2023-07-10T01:39:55.132Z,99376.00
2023-07-10T01:40:55.158Z,99375.00
2023-07-10T01:41:55.133Z,99375.00
2023-07-10T01:42:55.154Z,99375.00
2023-07-10T01:43:55.165Z,99375.00
2023-07-10T01:44:55.200Z,99368.00
2023-07-10T01:45:55.228Z,99365.00
2023-07-10T01:46:55.252Z,99365.00
2023-07-10T01:47:55.354Z,99360.00
2023-07-10T01:48:55.352Z,99361.00
2023-07-10T01:49:55.273Z,99362.00
2023-07-10T01:50:55.238Z,99360.00
2023-07-10T01:51:55.209Z,99362.00
2023-07-10T01:52:55.240Z,99361.00
2023-07-10T01:53:55.265Z,99361.00
2023-07-10T01:54:57.323Z,99361.00
2023-07-10T01:55:55.288Z,99369.00
2023-07-10T01:56:55.293Z,99370.00
2023-07-10T01:57:55.326Z,99372.00
2023-07-10T01:58:55.350Z,99374.00
2023-07-10T01:59:55.378Z,99375.00
2023-07-10T02:00:55.386Z,99377.00
2023-07-10T02:01:55.400Z,99375.00
2023-07-10T02:02:55.460Z,99375.00
2023-07-10T02:03:55.494Z,99377.00
2023-07-10T02:04:55.406Z,99375.00
2023-07-10T02:05:55.522Z,99371.00
2023-07-10T02:06:55.445Z,99371.00
2023-07-10T02:07:55.461Z,99373.00
2023-07-10T02:08:55.491Z,99374.00
2023-07-10T02:09:55.505Z,99375.00
2023-07-10T02:10:55.554Z,99374.00
2023-07-10T02:11:55.503Z,99373.00
2023-07-10T02:12:55.533Z,99371.00
2023-07-10T02:13:55.573Z,99375.00
2023-07-10T02:14:55.543Z,99373.00
2023-07-10T02:15:55.571Z,99379.00
2023-07-10T02:16:55.619Z,99375.00
2023-07-10T02:17:55.634Z,99375.00
2023-07-10T02:18:55.621Z,99376.00
2023-07-10T02:19:55.652Z,99375.00
2023-07-10T02:20:55.683Z,99372.00
2023-07-10T02:21:55.683Z,99372.00
2023-07-10T02:22:55.684Z,99374.00
2023-07-10T02:23:55.703Z,99372.00
2023-07-10T02:24:55.734Z,99370.00
2023-07-10T02:25:55.777Z,99368.00
2023-07-10T02:26:55.758Z,99366.00
2023-07-10T02:27:55.772Z,99362.00
2023-07-10T02:28:55.784Z,99359.00
2023-07-10T02:29:55.800Z,99362.00
2023-07-10T02:30:55.832Z,99361.00
2023-07-10T02:31:55.933Z,99358.00
2023-07-10T02:32:55.893Z,99352.00
2023-07-10T02:33:55.846Z,99360.00
2023-07-10T02:34:55.836Z,99357.00
2023-07-10T02:35:55.908Z,99357.00
2023-07-10T02:36:55.866Z,99355.00
2023-07-10T02:37:55.935Z,99354.00
2023-07-10T02:38:55.900Z,99352.00
2023-07-10T02:39:55.916Z,99349.00
2023-07-10T02:40:55.971Z,99351.00
2023-07-10T02:41:55.961Z,99348.00
2023-07-10T02:42:55.949Z,99347.00
2023-07-10T02:43:55.976Z,99341.00
2023-07-10T02:44:55.984Z,99336.00
2023-07-10T02:45:56.106Z,99339.00
2023-07-10T02:46:56.009Z,99341.00
2023-07-10T02:47:56.045Z,99344.00
2023-07-10T02:48:56.034Z,99343.00
2023-07-10T02:49:56.081Z,99342.00
2023-07-10T02:50:56.103Z,99349.00
2023-07-10T02:51:56.123Z,99343.00
2023-07-10T02:52:56.148Z,99339.00
2023-07-10T02:53:56.196Z,99342.00
2023-07-10T02:54:56.155Z,99338.00
2023-07-10T02:55:56.191Z,99337.00
2023-07-10T02:56:56.159Z,99337.00
2023-07-10T02:57:56.200Z,99338.00
2023-07-10T02:58:56.171Z,99338.00
2023-07-10T02:59:56.188Z,99341.00
2023-07-10T03:00:56.232Z,99340.00
2023-07-10T03:01:56.224Z,99339.00
2023-07-10T03:02:56.278Z,99336.00
2023-07-10T03:03:56.258Z,99334.00
2023-07-10T03:04:56.333Z,99328.00
2023-07-10T03:05:56.334Z,99328.00
2023-07-10T03:06:56.296Z,99326.00
2023-07-10T03:07:56.303Z,99332.00
2023-07-10T03:08:56.331Z,99335.00
2023-07-10T03:09:56.387Z,99336.00
2023-07-10T03:10:56.381Z,99338.00
2023-07-10T03:11:56.347Z,99338.00
2023-07-10T03:12:56.370Z,99337.00
2023-07-10T03:13:56.465Z,99342.00
2023-07-10T03:14:56.520Z,99341.00
2023-07-10T03:15:56.501Z,99340.00
2023-07-10T03:16:56.427Z,99339.00
2023-07-10T03:17:56.544Z,99338.00
2023-07-10T03:18:56.452Z,99335.00
2023-07-10T03:19:56.452Z,99337.00
2023-07-10T03:20:56.480Z,99341.00
2023-07-10T03:21:56.461Z,99339.00
2023-07-10T03:22:56.465Z,99347.00
2023-07-10T03:23:56.478Z,99350.00
2023-07-10T03:24:56.475Z,99350.00
2023-07-10T03:25:56.522Z,99355.00
2023-07-10T03:26:56.496Z,99356.00
2023-07-10T03:27:56.503Z,99357.00
2023-07-10T03:28:56.532Z,99360.00
2023-07-10T03:29:56.543Z,99364.00
2023-07-10T03:30:56.643Z,99362.00
2023-07-10T03:31:56.552Z,99365.00
2023-07-10T03:32:56.613Z,99376.00
2023-07-10T03:33:56.580Z,99375.00
2023-07-10T03:34:56.603Z,99374.00
2023-07-10T03:35:56.625Z,99381.00
2023-07-10T03:36:56.643Z,99382.00
2023-07-10T03:37:56.664Z,99388.00
2023-07-10T03:38:56.712Z,99390.00
2023-07-10T03:39:56.676Z,99392.00
2023-07-10T03:40:56.663Z,99393.00
2023-07-10T03:41:56.687Z,99388.00
2023-07-10T03:42:56.664Z,99389.00
2023-07-10T03:43:56.704Z,99388.00
2023-07-10T03:44:56.648Z,99385.00
2023-07-10T03:45:56.670Z,99389.00
2023-07-10T03:46:56.695Z,99392.00
2023-07-10T03:47:56.735Z,99390.00
2023-07-10T03:48:56.715Z,99390.00
2023-07-10T03:49:56.684Z,99388.00
2023-07-10T03:50:56.678Z,99378.00
2023-07-10T03:51:56.669Z,99385.00
2023-07-10T03:52:56.658Z,99385.00
2023-07-10T03:53:56.646Z,99380.00
2023-07-10T03:54:56.681Z,99379.00
2023-07-10T03:55:56.697Z,99382.00
2023-07-10T03:56:56.690Z,99374.00
2023-07-10T03:57:56.700Z,99381.00
2023-07-10T03:58:56.684Z,99384.00
2023-07-10T03:59:56.660Z,99385.00
2023-07-10T04:00:58.063Z,99388.00
2023-07-10T04:01:56.699Z,99390.00
2023-07-10T04:02:56.769Z,99393.00
2023-07-10T04:03:56.767Z,99399.00
2023-07-10T04:04:56.752Z,99402.00
2023-07-10T04:05:56.786Z,99403.00
2023-07-10T04:06:56.853Z,99408.00
2023-07-10T04:07:56.790Z,99413.00
2023-07-10T04:08:56.791Z,99418.00
2023-07-10T04:09:56.779Z,99423.00
2023-07-10T04:10:56.791Z,99432.00
2023-07-10T04:11:56.785Z,99438.00
2023-07-10T04:12:56.776Z,99442.00
2023-07-10T04:13:56.826Z,99443.00
2023-07-10T04:14:56.782Z,99450.00
2023-07-10T04:15:56.771Z,99448.00
2023-07-10T04:16:56.815Z,99447.00
2023-07-10T04:17:56.836Z,99454.00
2023-07-10T04:18:56.834Z,99455.00
2023-07-10T04:19:56.803Z,99452.00
2023-07-10T04:20:56.787Z,99453.00
2023-07-10T04:21:56.791Z,99454.00
2023-07-10T04:22:56.787Z,99457.00
2023-07-10T04:23:56.771Z,99459.00
2023-07-10T04:24:56.789Z,99459.00
2023-07-10T04:25:56.779Z,99461.00
2023-07-10T04:26:56.818Z,99460.00
2023-07-10T04:27:56.833Z,99459.00
2023-07-10T04:28:56.821Z,99459.00
2023-07-10T04:29:56.837Z,99458.00
2023-07-10T04:30:56.936Z,99464.00
2023-07-10T04:31:56.841Z,99462.00
2023-07-10T04:32:56.848Z,99464.00
2023-07-10T04:33:56.831Z,99466.00
2023-07-10T04:34:56.824Z,99472.00
2023-07-10T04:35:56.861Z,99467.00
2023-07-10T04:36:56.847Z,99464.00
2023-07-10T04:37:56.828Z,99458.00
2023-07-10T04:38:56.818Z,99460.00
2023-07-10T04:39:56.843Z,99465.00
2023-07-10T04:40:56.887Z,99470.00
2023-07-10T04:41:56.878Z,99469.00
2023-07-10T04:42:56.901Z,99470.00
2023-07-10T04:43:56.893Z,99469.00
2023-07-10T04:44:56.880Z,99474.00
2023-07-10T04:45:56.905Z,99478.00
2023-07-10T04:46:56.925Z,99480.00
2023-07-10T04:47:56.966Z,99480.00
2023-07-10T04:48:56.897Z,99474.00
2023-07-10T04:49:56.882Z,99472.00
2023-07-10T04:50:56.883Z,99470.00
2023-07-10T04:51:56.907Z,99473.00
2023-07-10T04:52:56.937Z,99480.00
2023-07-10T04:53:56.921Z,99484.00
2023-07-10T04:54:56.936Z,99476.00
2023-07-10T04:55:56.932Z,99470.00
2023-07-10T04:56:56.953Z,99476.00
2023-07-10T04:57:57.001Z,99482.00
2023-07-10T04:58:56.984Z,99480.00
2023-07-10T04:59:56.982Z,99480.00
2023-07-10T05:02:23.151Z,99482.00
2023-07-10T05:03:22.911Z,99487.00
2023-07-10T05:04:22.931Z,99488.00
2023-07-10T05:05:22.907Z,99484.00
2023-07-10T05:06:22.921Z,99494.00
2023-07-10T05:07:22.934Z,99496.00
2023-07-10T05:08:22.964Z,99494.00
2023-07-10T05:09:22.951Z,99487.00
2023-07-10T05:10:22.973Z,99487.00
2023-07-10T05:11:23.014Z,99481.00
2023-07-10T05:12:23.037Z,99477.00
2023-07-10T05:13:23.021Z,99477.00
2023-07-10T05:14:23.033Z,99473.00
2023-07-10T05:15:23.029Z,99473.00
2023-07-10T05:16:23.051Z,99476.00
2023-07-10T05:17:23.055Z,99478.00
2023-07-10T05:18:23.060Z,99481.00
2023-07-10T05:19:23.020Z,99484.00
2023-07-10T05:20:23.032Z,99490.00
2023-07-10T05:21:23.066Z,99490.00
2023-07-10T05:22:23.074Z,99494.00
2023-07-10T05:23:23.044Z,99493.00
2023-07-10T05:24:23.073Z,99496.00
2023-07-10T05:25:23.060Z,99493.00
2023-07-10T05:26:23.101Z,99487.00
2023-07-10T05:27:23.101Z,99488.00
2023-07-10T05:28:23.085Z,99489.00
2023-07-10T05:29:23.110Z,99491.00
2023-07-10T05:30:23.123Z,99493.00
2023-07-10T05:31:23.142Z,99496.00
2023-07-10T05:32:23.185Z,99497.00
2023-07-10T05:33:23.132Z,99503.00
2023-07-10T05:34:23.224Z,99505.00
2023-07-10T05:35:23.160Z,99501.00
2023-07-10T05:36:23.221Z,99506.00
2023-07-10T05:37:23.208Z,99500.00
2023-07-10T05:38:23.196Z,99504.00
2023-07-10T05:39:23.232Z,99505.00
2023-07-10T05:40:23.218Z,99506.00
2023-07-10T05:41:23.218Z,99511.00
2023-07-10T05:42:23.195Z,99513.00
2023-07-10T05:43:23.312Z,99513.00
2023-07-10T05:44:23.201Z,99516.00
2023-07-10T05:45:23.185Z,99515.00
2023-07-10T05:46:23.234Z,99515.00
2023-07-10T05:47:23.255Z,99513.00
2023-07-10T05:48:23.229Z,99512.00
2023-07-10T05:49:23.237Z,99514.00
2023-07-10T05:50:23.260Z,99510.00
2023-07-10T05:51:23.257Z,99507.00
2023-07-10T05:52:23.230Z,99504.00
2023-07-10T05:53:23.246Z,99505.00
2023-07-10T05:54:23.234Z,99503.00
2023-07-10T05:55:23.250Z,99502.00
2023-07-10T05:56:23.286Z,99501.00
2023-07-10T05:57:23.275Z,99504.00
2023-07-10T05:58:23.269Z,99511.00
2023-07-10T05:59:23.254Z,99512.00
2023-07-10T06:00:23.285Z,99520.00
2023-07-10T06:01:23.379Z,99518.00
2023-07-10T06:02:23.398Z,99511.00
2023-07-10T06:03:23.373Z,99515.00
2023-07-10T06:04:23.322Z,99520.00
2023-07-10T06:05:23.354Z,99528.00
2023-07-10T06:06:23.414Z,99527.00
2023-07-10T06:07:23.363Z,99532.00
2023-07-10T06:08:23.347Z,99531.00
2023-07-10T06:09:23.347Z,99530.00
2023-07-10T06:10:23.333Z,99528.00
2023-07-10T06:11:23.360Z,99532.00
2023-07-10T06:12:23.383Z,99544.00
2023-07-10T06:13:23.425Z,99536.00
2023-07-10T06:14:23.439Z,99533.00
2023-07-10T06:15:23.428Z,99529.00
2023-07-10T06:16:23.519Z,99527.00
2023-07-10T06:17:23.486Z,99529.00
2023-07-10T06:18:23.465Z,99528.00
2023-07-10T06:19:23.480Z,99523.00
2023-07-10T06:20:23.490Z,99521.00
2023-07-10T06:21:23.430Z,99522.00
2023-07-10T06:22:23.445Z,99520.00
2023-07-10T06:23:23.438Z,99517.00
2023-07-10T06:24:23.482Z,99532.00
2023-07-10T06:25:23.493Z,99527.00
2023-07-10T06:26:23.516Z,99534.00
2023-07-10T06:27:23.511Z,99534.00
2023-07-10T06:28:23.557Z,99538.00
2023-07-10T06:29:23.674Z,99535.00
2023-07-10T06:30:23.519Z,99535.00
2023-07-10T06:31:23.589Z,99540.00
2023-07-10T06:32:23.588Z,99542.00
2023-07-10T06:33:23.545Z,99533.00
2023-07-10T06:34:23.579Z,99532.00
2023-07-10T06:35:23.580Z,99537.00
2023-07-10T06:36:23.598Z,99536.00
2023-07-10T06:37:23.610Z,99532.00
2023-07-10T06:38:23.639Z,99537.00
2023-07-10T06:39:23.625Z,99536.00
2023-07-10T06:40:23.619Z,99536.00
2023-07-10T06:41:23.653Z,99534.00
2023-07-10T06:42:23.714Z,99532.00
2023-07-10T06:43:23.757Z,99531.00
2023-07-10T06:44:23.743Z,99532.00
2023-07-10T06:45:23.684Z,99534.00
2023-07-10T06:46:23.723Z,99534.00
2023-07-10T06:47:23.970Z,99531.00
2023-07-10T06:48:23.713Z,99530.00
2023-07-10T06:49:23.726Z,99526.00
2023-07-10T06:50:23.717Z,99527.00
2023-07-10T06:51:23.717Z,99523.00
2023-07-10T06:52:23.705Z,99527.00
2023-07-10T06:53:27.184Z,99530.00
2023-07-10T06:54:23.819Z,99535.00
2023-07-10T06:55:23.726Z,99541.00
2023-07-10T06:56:23.737Z,99536.00
2023-07-10T06:57:23.766Z,99532.00
2023-07-10T06:58:23.777Z,99530.00
2023-07-10T06:59:23.819Z,99534.00
2023-07-10T07:00:23.879Z,99538.00
2023-07-10T07:01:23.875Z,99542.00
2023-07-10T07:02:23.846Z,99535.00
2023-07-10T07:03:23.847Z,99542.00
2023-07-10T07:04:23.868Z,99545.00
2023-07-10T07:05:26.526Z,99545.00
2023-07-10T07:06:23.905Z,99547.00
2023-07-10T07:07:24.425Z,99544.00
2023-07-10T07:08:23.924Z,99552.00
2023-07-10T07:09:23.925Z,99562.00
2023-07-10T07:10:23.970Z,99564.00
2023-07-10T07:11:23.943Z,99559.00
2023-07-10T07:12:23.943Z,99567.00
2023-07-10T07:13:23.930Z,99568.00
2023-07-10T07:14:23.954Z,99556.00
2023-07-10T07:15:23.958Z,99564.00
2023-07-10T07:16:24.015Z,99567.00
2023-07-10T07:17:24.014Z,99573.00
2023-07-10T07:18:26.006Z,99570.00
2023-07-10T07:19:24.013Z,99561.00
2023-07-10T07:20:23.999Z,99566.00
2023-07-10T07:21:24.025Z,99564.00
2023-07-10T07:22:24.011Z,99564.00
2023-07-10T07:23:24.025Z,99566.00
2023-07-10T07:24:24.001Z,99570.00
2023-07-10T07:25:24.005Z,99574.00
2023-07-10T07:26:24.013Z,99572.00
2023-07-10T07:27:24.021Z,99576.00
2023-07-10T07:28:23.982Z,99568.00
2023-07-10T07:29:23.997Z,99574.00
2023-07-10T07:30:23.982Z,99576.00
2023-07-10T07:31:24.045Z,99571.00
2023-07-10T07:32:24.070Z,99575.00
2023-07-10T07:33:24.058Z,99572.00
2023-07-10T07:34:24.052Z,99579.00
2023-07-10T07:35:24.065Z,99573.00
2023-07-10T07:36:24.047Z,99577.00
2023-07-10T07:37:24.070Z,99574.00
2023-07-10T07:38:24.057Z,99582.00
2023-07-10T07:39:24.069Z,99583.00
2023-07-10T07:40:24.121Z,99588.00
2023-07-10T07:41:24.093Z,99583.00
2023-07-10T07:42:24.139Z,99595.00
2023-07-10T07:43:24.135Z,99592.00
2023-07-10T07:44:24.129Z,99585.00
2023-07-10T07:45:24.141Z,99590.00
2023-07-10T07:46:24.143Z,99589.00
2023-07-10T07:47:24.245Z,99582.00
2023-07-10T07:48:24.209Z,99580.00
2023-07-10T07:49:24.149Z,99586.00
2023-07-10T07:50:24.140Z,99587.00
2023-07-10T07:51:24.130Z,99585.00
2023-07-10T07:52:24.191Z,99580.00
2023-07-10T07:53:24.190Z,99582.00
2023-07-10T07:54:26.384Z,99573.00
2023-07-10T07:55:25.061Z,99573.00
2023-07-10T07:56:24.216Z,99579.00
2023-07-10T07:57:24.280Z,99581.00
2023-07-10T07:58:24.279Z,99575.00
2023-07-10T07:59:24.242Z,99577.00
2023-07-10T08:00:26.494Z,99581.00
2023-07-10T08:01:24.274Z,99585.00
2023-07-10T08:02:24.261Z,99580.00
2023-07-10T08:03:24.427Z,99585.00
2023-07-10T08:04:24.401Z,99587.00
2023-07-10T08:05:35.702Z,99586.00
2023-07-10T08:06:24.395Z,99594.00
2023-07-10T08:07:24.378Z,99596.00
2023-07-10T08:08:24.489Z,99594.00
2023-07-10T08:09:24.373Z,99593.00
2023-07-10T08:10:24.453Z,99601.00
2023-07-10T08:11:24.394Z,99601.00
2023-07-10T08:12:24.415Z,99605.00
2023-07-10T08:13:24.611Z,99599.00
2023-07-10T08:14:24.464Z,99596.00
2023-07-10T08:15:24.472Z,99605.00
2023-07-10T08:16:24.524Z,99597.00
2023-07-10T08:17:24.530Z,99598.00
2023-07-10T08:18:24.528Z,99598.00
2023-07-10T08:19:24.573Z,99599.00
2023-07-10T08:20:24.574Z,99600.00
2023-07-10T08:21:24.522Z,99599.00
2023-07-10T08:22:24.494Z,99602.00
2023-07-10T08:23:24.533Z,99605.00
2023-07-10T08:24:24.529Z,99602.00
2023-07-10T08:25:24.572Z,99603.00
2023-07-10T08:26:24.516Z,99607.00
2023-07-10T08:28:24.552Z,99602.00
2023-07-10T08:29:24.583Z,99602.00
2023-07-10T08:30:24.600Z,99601.00
2023-07-10T08:31:24.747Z,99606.00
2023-07-10T08:32:24.600Z,99603.00
2023-07-10T08:33:24.584Z,99603.00
2023-07-10T08:34:24.653Z,99602.00
2023-07-10T08:35:24.622Z,99596.00
2023-07-10T08:36:24.611Z,99607.00
2023-07-10T08:37:24.606Z,99602.00
2023-07-10T08:38:24.598Z,99604.00
2023-07-10T08:39:24.616Z,99608.00
2023-07-10T08:40:24.640Z,99609.00
2023-07-10T08:41:24.670Z,99610.00
2023-07-10T08:42:24.723Z,99608.00
2023-07-10T08:43:24.706Z,99622.00
2023-07-10T08:44:24.728Z,99610.00
2023-07-10T08:45:24.753Z,99610.00
2023-07-10T08:46:24.853Z,99607.00
2023-07-10T08:47:24.829Z,99610.00
2023-07-10T08:48:24.828Z,99609.00
2023-07-10T08:49:24.798Z,99615.00
2023-07-10T08:50:24.827Z,99616.00
2023-07-10T08:51:24.850Z,99617.00
2023-07-10T08:52:24.839Z,99621.00
2023-07-10T08:53:24.814Z,99620.00
2023-07-10T08:54:24.807Z,99616.00
2023-07-10T08:55:24.802Z,99617.00
2023-07-10T08:56:24.843Z,99617.00
2023-07-10T08:57:24.818Z,99619.00
2023-07-10T08:58:24.853Z,99620.00
2023-07-10T08:59:24.835Z,99616.00
2023-07-10T09:00:24.821Z,99613.00
2023-07-10T09:01:24.903Z,99615.00
2023-07-10T09:02:24.896Z,99615.00
2023-07-10T09:03:24.812Z,99613.00
2023-07-10T09:04:24.845Z,99615.00
2023-07-10T09:05:24.852Z,99615.00
2023-07-10T09:06:24.836Z,99618.00
2023-07-10T09:07:24.836Z,99621.00
2023-07-10T09:08:24.811Z,99621.00
2023-07-10T09:09:24.862Z,99621.00
2023-07-10T09:10:24.855Z,99623.00
2023-07-10T09:11:24.873Z,99623.00
2023-07-10T09:12:24.889Z,99622.00
2023-07-10T09:13:24.910Z,99625.00
2023-07-10T09:14:24.999Z,99625.00
2023-07-10T09:15:24.926Z,99629.00
2023-07-10T09:16:25.073Z,99632.00
2023-07-10T09:17:24.979Z,99636.00
2023-07-10T09:18:24.987Z,99629.00
2023-07-10T09:19:25.002Z,99643.00
2023-07-10T09:20:25.012Z,99638.00
2023-07-10T09:21:25.002Z,99634.00
2023-07-10T09:22:25.017Z,99632.00
2023-07-10T09:23:25.040Z,99639.00
2023-07-10T09:24:25.016Z,99631.00
2023-07-10T09:25:25.051Z,99636.00
2023-07-10T09:26:25.079Z,99630.00
2023-07-10T09:27:25.065Z,99630.00
2023-07-10T09:28:25.077Z,99629.00
2023-07-10T09:29:25.051Z,99633.00
2023-07-10T09:30:25.067Z,99638.00
2023-07-10T09:31:25.060Z,99634.00
2023-07-10T09:32:25.113Z,99640.00
2023-07-10T09:33:25.064Z,99642.00
2023-07-10T09:34:25.123Z,99634.00
2023-07-10T09:35:25.124Z,99637.00
2023-07-10T09:36:25.112Z,99643.00
2023-07-10T09:37:25.095Z,99640.00
2023-07-10T09:38:25.124Z,99633.00
2023-07-10T09:39:25.115Z,99634.00
2023-07-10T09:40:25.147Z,99640.00
2023-07-10T09:41:25.171Z,99635.00
2023-07-10T09:42:25.156Z,99637.00
2023-07-10T09:43:25.186Z,99631.00
2023-07-10T09:44:25.174Z,99641.00
2023-07-10T09:45:25.179Z,99641.00
2023-07-10T09:46:25.237Z,99642.00
2023-07-10T09:47:25.196Z,99637.00
2023-07-10T09:48:25.166Z,99640.00
2023-07-10T09:49:25.204Z,99641.00
2023-07-10T09:50:25.242Z,99640.00
2023-07-10T09:51:25.211Z,99640.00
2023-07-10T09:52:25.245Z,99649.00
2023-07-10T09:53:25.220Z,99653.00
2023-07-10T09:54:25.237Z,99644.00
2023-07-10T09:55:25.236Z,99646.00
2023-07-10T09:56:25.245Z,99642.00
2023-07-10T09:57:25.244Z,99642.00
2023-07-10T09:58:25.266Z,99643.00
2023-07-10T09:59:25.285Z,99643.00
2023-07-10T10:00:25.314Z,99652.00
2023-07-10T10:01:25.393Z,99647.00
2023-07-10T10:02:25.416Z,99652.00
2023-07-10T10:03:25.400Z,99637.00
2023-07-10T10:04:25.363Z,99641.00
2023-07-10T10:05:25.389Z,99637.00
2023-07-10T10:06:25.438Z,99646.00
2023-07-10T10:07:25.427Z,99647.00
2023-07-10T10:08:25.436Z,99652.00
2023-07-10T10:09:25.459Z,99640.00
2023-07-10T10:10:25.503Z,99643.00
2023-07-10T10:11:25.472Z,99640.00
2023-07-10T10:12:25.476Z,99645.00
2023-07-10T10:13:26.993Z,99641.00
2023-07-10T10:14:25.513Z,99638.00
2023-07-10T10:15:25.516Z,99649.00
2023-07-10T10:16:25.509Z,99644.00
2023-07-10T10:17:25.565Z,99643.00
2023-07-10T10:18:25.580Z,99645.00
2023-07-10T10:19:25.535Z,99643.00
2023-07-10T10:20:25.514Z,99636.00
2023-07-10T10:21:25.529Z,99637.00
2023-07-10T10:22:25.585Z,99638.00
2023-07-10T10:23:25.551Z,99649.00
2023-07-10T10:24:25.581Z,99649.00
2023-07-10T10:25:25.567Z,99649.00
2023-07-10T10:26:25.565Z,99642.00
2023-07-10T10:27:25.556Z,99645.00
2023-07-10T10:28:25.572Z,99651.00
2023-07-10T10:29:25.606Z,99668.00
2023-07-10T10:30:25.591Z,99649.00
2023-07-10T10:31:25.630Z,99655.00
2023-07-10T10:32:25.642Z,99646.00
2023-07-10T10:33:25.580Z,99641.00
2023-07-10T10:34:25.615Z,99642.00
2023-07-10T10:35:25.590Z,99645.00
2023-07-10T10:36:25.588Z,99645.00
2023-07-10T10:37:25.601Z,99652.00
2023-07-10T10:38:25.652Z,99645.00
2023-07-10T10:39:25.637Z,99649.00
2023-07-10T10:40:25.626Z,99642.00
2023-07-10T10:41:25.625Z,99639.00
2023-07-10T10:42:25.641Z,99641.00
2023-07-10T10:43:25.699Z,99632.00
2023-07-10T10:44:25.666Z,99656.00
2023-07-10T10:45:25.665Z,99642.00
2023-07-10T10:46:25.675Z,99640.00
2023-07-10T10:47:25.697Z,99641.00
2023-07-10T10:48:25.662Z,99646.00
2023-07-10T10:49:25.721Z,99640.00
2023-07-10T10:50:25.717Z,99638.00
2023-07-10T10:51:25.706Z,99633.00
2023-07-10T10:52:25.729Z,99637.00
2023-07-10T10:53:25.757Z,99637.00
2023-07-10T10:54:33.186Z,99634.00
2023-07-10T10:55:25.759Z,99637.00
2023-07-10T10:56:25.758Z,99644.00
2023-07-10T10:57:25.762Z,99633.00
2023-07-10T10:58:26.629Z,99635.00
2023-07-10T10:59:25.882Z,99634.00
2023-07-10T11:00:25.780Z,99632.00
2023-07-10T11:01:25.830Z,99640.00
2023-07-10T11:02:25.804Z,99639.00
2023-07-10T11:03:25.888Z,99634.00
2023-07-10T11:04:25.798Z,99639.00
2023-07-10T11:05:25.816Z,99628.00
2023-07-10T11:06:25.811Z,99627.00
2023-07-10T11:07:25.802Z,99631.00
2023-07-10T11:08:27.917Z,99632.00
2023-07-10T11:09:25.817Z,99628.00
2023-07-10T11:10:25.863Z,99626.00
2023-07-10T11:11:25.824Z,99622.00
2023-07-10T11:12:25.848Z,99625.00
2023-07-10T11:13:25.927Z,99624.00
2023-07-10T11:14:26.621Z,99627.00
2023-07-10T11:15:25.889Z,99626.00
2023-07-10T11:16:25.921Z,99622.00
2023-07-10T11:17:25.940Z,99622.00
2023-07-10T11:18:25.974Z,99624.00
2023-07-10T11:19:25.929Z,99632.00
2023-07-10T11:20:25.944Z,99624.00
2023-07-10T11:21:25.957Z,99617.00
2023-07-10T11:22:25.985Z,99619.00
2023-07-10T11:23:25.975Z,99617.00
2023-07-10T11:24:25.974Z,99609.00
2023-07-10T11:25:25.954Z,99612.00
2023-07-10T11:26:26.011Z,99606.00
2023-07-10T11:27:25.987Z,99605.00
2023-07-10T11:28:26.018Z,99605.00
2023-07-10T11:29:25.997Z,99603.00
2023-07-10T11:30:25.980Z,99598.00
2023-07-10T11:31:26.039Z,99595.00
2023-07-10T11:32:26.036Z,99596.00
2023-07-10T11:33:26.010Z,99598.00
2023-07-10T11:34:26.040Z,99599.00
2023-07-10T11:35:26.063Z,99596.00
2023-07-10T11:36:26.106Z,99596.00
2023-07-10T11:37:26.075Z,99602.00
2023-07-10T11:38:26.110Z,99596.00
2023-07-10T11:39:26.137Z,99596.00
2023-07-10T11:40:26.141Z,99602.00
2023-07-10T11:41:26.127Z,99607.00
2023-07-10T11:42:27.241Z,99592.00
2023-07-10T11:43:26.158Z,99600.00
2023-07-10T11:44:26.141Z,99607.00
2023-07-10T11:45:26.155Z,99580.00
2023-07-10T11:46:26.170Z,99577.00
2023-07-10T11:47:26.224Z,99582.00